X  Schlie├čen METAR Luftfahrt Wetterdaten     EHKD De Kooy Airport
Temperatur
10°C Temperatur
8°C Taupunkt
88% Feuchtigkeit



Wind
35 KM/S
22 MPS
10 M/S
19 KTS



230°
SW
Aktuelle Wetterlage

Leicht  Regen Leicht Regen
Luftdruck 991.87 (hPa) - 29.29 (inHg)
Sichtweite 3.1 (Meile) - 5 (Km)
Flughafen
Flughafen Code EHKD

Position : De Kooy Airport
Entfernung: 34 (Km)

Metar:
EHKD 110458Z AUTO 23019G29KT 200V260 5000 -RA FEW015CB SCT026 BKN030 10/08 Q0992 WHT

Zeit: 11-12-2023 05:58 CET